Time;durP1;ratioP1;P1;durP2;ratioP2;P2;SDS_P1;SDS_P2;PMS_P1;PMS_P2;Temp;Humidity;BMP_temperature;BMP_pressure;BME280_temperature;BME280_humidity;BME280_pressure;Samples;Min_cycle;Max_cycle;Signal;HPM_P1;HPM_P2
2023/07/27 00:02:13;;;;;;;7.00;3.47;;;16.00;99.90;;;;;;4877766;28;39804;-80
2023/07/27 00:04:45;;;;;;;5.03;3.03;;;15.80;99.90;;;;;;4917140;28;38187;-80
2023/07/27 00:07:16;;;;;;;6.40;3.65;;;15.70;99.90;;;;;;4899437;29;39686;-80
2023/07/27 00:09:48;;;;;;;6.60;3.38;;;15.70;99.90;;;;;;4902523;28;39668;-79
2023/07/27 00:12:23;;;;;;;6.82;3.78;;;15.60;99.90;;;;;;4911248;29;38636;-80
2023/07/27 00:14:51;;;;;;;8.30;3.42;;;15.60;99.90;;;;;;4911945;29;37710;-80
2023/07/27 00:17:18;;;;;;;7.70;3.95;;;15.50;99.90;;;;;;4913202;29;38968;-80
2023/07/27 00:19:45;;;;;;;5.93;4.38;;;15.40;99.90;;;;;;4921591;29;39821;-80
2023/07/27 00:22:11;;;;;;;7.95;3.80;;;15.40;99.90;;;;;;4911083;29;37224;-80
2023/07/27 00:24:37;;;;;;;7.28;4.22;;;15.30;99.90;;;;;;4894633;29;36542;-78
2023/07/27 00:27:04;;;;;;;6.13;4.03;;;15.20;99.90;;;;;;4898414;29;39352;-78
2023/07/27 00:29:30;;;;;;;8.40;4.90;;;15.20;99.90;;;;;;4883620;29;37573;-78
2023/07/27 00:31:56;;;;;;;6.00;4.25;;;15.10;99.90;;;;;;4898317;29;37608;-78
2023/07/27 00:34:22;;;;;;;8.05;5.43;;;15.10;99.90;;;;;;4885219;29;35813;-79
2023/07/27 00:36:48;;;;;;;6.30;4.40;;;15.00;99.90;;;;;;4892577;29;38515;-78
2023/07/27 00:39:14;;;;;;;8.45;5.40;;;14.90;99.90;;;;;;4908080;29;39797;-78
2023/07/27 00:41:42;;;;;;;6.60;5.72;;;15.00;99.90;;;;;;4898894;29;38869;-78
2023/07/27 00:44:08;;;;;;;5.57;4.55;;;14.90;99.90;;;;;;4908915;29;36713;-78
2023/07/27 00:46:36;;;;;;;8.63;5.13;;;14.90;99.90;;;;;;4915980;29;40036;-79
2023/07/27 00:49:03;;;;;;;8.55;4.68;;;14.90;99.90;;;;;;4898751;29;38791;-79
2023/07/27 00:51:35;;;;;;;8.07;4.90;;;14.90;99.90;;;;;;4904117;29;38628;-79
2023/07/27 00:54:07;;;;;;;9.43;5.25;;;14.80;99.90;;;;;;4915248;29;37455;-79
2023/07/27 00:56:35;;;;;;;5.53;4.75;;;14.80;99.90;;;;;;4916001;29;48648;-79
2023/07/27 00:59:02;;;;;;;8.43;5.50;;;14.80;99.90;;;;;;4923305;28;40493;-79
2023/07/27 01:25:40;;;;;;;14.02;9.65;;;15.00;99.90;;;;;;5101056;23;20039;-81
2023/07/27 01:28:48;;;;;;;13.52;9.07;;;14.90;99.90;;;;;;4915130;28;49175;-81
2023/07/27 01:31:47;;;;;;;13.05;8.57;;;14.90;99.90;;;;;;4947428;28;39314;-81
2023/07/27 01:34:29;;;;;;;15.68;9.75;;;14.90;99.90;;;;;;4926351;28;38082;-80
2023/07/27 01:36:59;;;;;;;15.10;8.65;;;15.00;99.90;;;;;;4926651;28;36450;-79
2023/07/27 01:39:27;;;;;;;13.30;7.85;;;15.00;99.90;;;;;;4935742;28;39035;-80
2023/07/27 01:41:55;;;;;;;16.98;9.90;;;15.00;99.90;;;;;;4937103;28;37857;-80
2023/07/27 01:44:31;;;;;;;13.25;8.80;;;15.00;99.90;;;;;;4954401;28;37379;-80
2023/07/27 01:47:17;;;;;;;15.07;8.88;;;15.00;99.90;;;;;;4939969;29;36863;-82
2023/07/27 01:49:46;;;;;;;13.55;8.95;;;15.00;99.90;;;;;;4941603;28;48790;-80
2023/07/27 01:52:14;;;;;;;12.57;9.23;;;14.90;99.90;;;;;;4940617;28;38470;-80
2023/07/27 01:54:40;;;;;;;14.15;9.30;;;14.90;99.90;;;;;;4937980;29;37438;-79
2023/07/27 01:57:09;;;;;;;19.58;11.07;;;14.90;99.90;;;;;;4939509;28;37959;-80
2023/07/27 01:59:37;;;;;;;15.27;9.88;;;14.90;99.90;;;;;;4938628;28;38046;-79
2023/07/27 02:02:04;;;;;;;20.70;12.07;;;15.00;99.90;;;;;;4938371;28;39062;-80
2023/07/27 02:04:30;;;;;;;16.38;11.38;;;15.00;99.90;;;;;;4932446;29;37212;-79
2023/07/27 02:06:57;;;;;;;12.65;9.75;;;14.90;99.90;;;;;;4937688;28;37714;-79
2023/07/27 02:09:23;;;;;;;15.98;10.45;;;15.00;99.90;;;;;;4934629;28;38646;-79
2023/07/27 02:12:05;;;;;;;18.17;12.40;;;14.90;99.90;;;;;;4935067;29;37587;-79
2023/07/27 02:14:45;;;;;;;17.23;12.55;;;14.90;99.90;;;;;;4929073;28;47419;-79
2023/07/27 02:17:24;;;;;;;23.08;14.73;;;14.90;99.90;;;;;;4935709;29;36297;-80
2023/07/27 02:19:56;;;;;;;20.33;14.82;;;14.90;99.90;;;;;;4942400;28;39576;-80
2023/07/27 02:22:30;;;;;;;25.30;17.95;;;14.80;99.90;;;;;;4938021;29;38367;-80
2023/07/27 02:24:57;;;;;;;30.33;19.92;;;14.80;99.90;;;;;;4937333;29;39501;-79
2023/07/27 02:27:23;;;;;;;25.20;18.35;;;14.80;99.90;;;;;;4946907;28;37842;-80
2023/07/27 02:29:49;;;;;;;31.05;20.05;;;14.90;99.90;;;;;;4944199;28;40078;-80
2023/07/27 02:32:15;;;;;;;30.65;19.60;;;14.90;99.90;;;;;;4946819;28;39193;-79
2023/07/27 02:34:41;;;;;;;30.65;21.20;;;14.90;99.90;;;;;;4946319;29;38806;-80
2023/07/27 02:37:07;;;;;;;35.45;23.27;;;14.80;99.90;;;;;;4948534;28;36224;-80
2023/07/27 02:39:33;;;;;;;32.05;22.80;;;14.90;99.90;;;;;;4946217;29;40044;-80
2023/07/27 02:41:59;;;;;;;32.53;22.33;;;14.80;99.90;;;;;;4953796;28;38446;-80
2023/07/27 02:44:26;;;;;;;31.08;21.17;;;14.90;99.90;;;;;;4947180;28;39247;-81
2023/07/27 02:46:52;;;;;;;27.02;20.63;;;14.80;99.90;;;;;;4945218;28;36409;-80
2023/07/27 02:49:18;;;;;;;32.20;22.15;;;14.80;99.90;;;;;;4939073;28;38073;-80
2023/07/27 02:51:47;;;;;;;27.77;21.15;;;14.80;99.90;;;;;;4948344;28;38558;-80
2023/07/27 02:54:13;;;;;;;28.42;20.20;;;14.80;99.90;;;;;;4939903;28;38597;-80
2023/07/27 02:56:39;;;;;;;28.85;19.70;;;14.80;99.90;;;;;;4944606;28;36374;-80
2023/07/27 02:59:05;;;;;;;33.17;20.40;;;14.70;99.90;;;;;;4950271;28;38922;-79
2023/07/27 03:01:31;;;;;;;29.15;20.38;;;14.80;99.90;;;;;;4940592;28;40158;-80
2023/07/27 03:03:58;;;;;;;24.83;19.38;;;14.80;99.90;;;;;;4945190;28;38900;-80
2023/07/27 03:06:24;;;;;;;23.92;17.88;;;14.80;99.90;;;;;;4943941;28;37619;-80
2023/07/27 03:08:50;;;;;;;24.55;17.90;;;14.80;99.90;;;;;;4938404;28;38586;-80
2023/07/27 03:11:16;;;;;;;23.08;18.08;;;14.70;99.90;;;;;;4939872;28;38388;-80
2023/07/27 03:13:42;;;;;;;25.48;18.30;;;14.80;99.90;;;;;;4939411;28;37350;-80
2023/07/27 03:16:08;;;;;;;23.70;16.45;;;14.80;99.90;;;;;;4939359;28;36335;-80
2023/07/27 03:18:34;;;;;;;24.40;16.75;;;14.80;99.90;;;;;;4935456;29;39170;-80
2023/07/27 03:21:04;;;;;;;19.85;14.88;;;14.70;99.90;;;;;;4937832;28;37557;-79
2023/07/27 03:23:33;;;;;;;19.15;15.25;;;14.70;99.90;;;;;;4935405;28;47345;-80
2023/07/27 03:26:00;;;;;;;19.40;14.60;;;14.70;99.90;;;;;;4935449;29;36672;-80
2023/07/27 03:28:26;;;;;;;18.58;14.98;;;14.70;99.90;;;;;;4937433;28;38739;-80
2023/07/27 03:30:53;;;;;;;21.40;14.75;;;14.70;99.90;;;;;;4938541;29;37977;-80
2023/07/27 03:33:19;;;;;;;22.23;14.57;;;14.70;99.90;;;;;;4949901;28;38843;-80
2023/07/27 03:35:45;;;;;;;17.25;13.05;;;14.80;99.90;;;;;;4948434;28;36352;-80
2023/07/27 03:38:11;;;;;;;19.83;13.98;;;14.80;99.90;;;;;;4948280;29;37515;-80
2023/07/27 03:40:37;;;;;;;15.25;13.10;;;14.80;99.90;;;;;;4942745;28;37886;-80
2023/07/27 03:43:03;;;;;;;17.92;12.90;;;14.80;99.90;;;;;;4947622;28;39236;-81
2023/07/27 03:45:29;;;;;;;21.98;14.13;;;14.80;99.90;;;;;;4951208;29;36305;-81
2023/07/27 03:47:56;;;;;;;14.98;12.52;;;14.80;99.90;;;;;;4952892;28;38984;-80
2023/07/27 03:50:22;;;;;;;14.57;11.90;;;14.80;99.90;;;;;;4950699;29;39154;-80
2023/07/27 03:52:48;;;;;;;15.52;12.52;;;14.80;99.90;;;;;;4955636;28;37523;-80
2023/07/27 03:55:18;;;;;;;17.63;12.07;;;14.90;99.90;;;;;;4954989;28;38020;-80
2023/07/27 03:57:47;;;;;;;12.77;10.93;;;14.90;99.90;;;;;;4959836;28;38730;-81
2023/07/27 04:00:14;;;;;;;13.90;11.02;;;14.90;99.90;;;;;;4954381;29;37686;-80
2023/07/27 04:02:44;;;;;;;13.23;10.82;;;15.00;99.90;;;;;;4950339;29;37244;-80
2023/07/27 04:05:10;;;;;;;13.52;11.93;;;15.00;99.90;;;;;;4953521;28;36002;-80
2023/07/27 04:07:36;;;;;;;14.98;12.07;;;15.00;99.90;;;;;;4959980;28;37983;-80
2023/07/27 04:10:03;;;;;;;14.88;12.57;;;15.10;99.90;;;;;;4960333;28;39502;-81
2023/07/27 04:12:29;;;;;;;13.18;11.77;;;15.10;99.90;;;;;;4956013;28;40613;-80
2023/07/27 04:15:06;;;;;;;15.15;11.45;;;15.10;99.90;;;;;;4976417;28;37792;-80
2023/07/27 04:17:33;;;;;;;12.63;10.93;;;15.20;99.90;;;;;;4952645;28;46905;-81
2023/07/27 04:20:01;;;;;;;15.82;12.52;;;15.20;99.90;;;;;;4971160;28;39533;-81
2023/07/27 04:22:29;;;;;;;12.50;11.15;;;15.20;99.90;;;;;;4947578;29;38496;-81
2023/07/27 04:24:58;;;;;;;13.32;10.93;;;15.30;99.90;;;;;;4935016;29;38320;-81
2023/07/27 04:27:25;;;;;;;11.48;9.90;;;15.30;99.90;;;;;;4932483;29;38045;-81
2023/07/27 04:29:51;;;;;;;12.93;10.40;;;15.30;99.90;;;;;;4946165;29;40351;-81
2023/07/27 04:32:17;;;;;;;12.30;9.25;;;15.40;99.90;;;;;;4953815;29;37458;-82
2023/07/27 04:34:43;;;;;;;10.20;9.13;;;15.40;99.90;;;;;;4954906;29;38208;-81
2023/07/27 04:37:11;;;;;;;10.38;8.73;;;15.40;99.90;;;;;;4956324;28;38042;-81
2023/07/27 04:39:38;;;;;;;9.15;8.18;;;15.40;99.90;;;;;;4959009;28;39167;-81
2023/07/27 04:42:04;;;;;;;8.95;8.02;;;15.40;99.90;;;;;;4957046;28;39947;-82
2023/07/27 04:44:31;;;;;;;8.07;7.28;;;15.50;99.90;;;;;;4948584;28;37521;-81
2023/07/27 04:46:58;;;;;;;7.50;6.78;;;15.50;99.90;;;;;;4973191;28;39613;-81
2023/07/27 04:49:30;;;;;;;7.43;6.20;;;15.50;99.90;;;;;;4958394;28;38665;-81
2023/07/27 04:51:56;;;;;;;7.40;6.00;;;15.50;99.90;;;;;;4955920;28;40477;-81
2023/07/27 04:54:28;;;;;;;6.38;5.78;;;15.60;99.90;;;;;;4955511;29;38185;-81
2023/07/27 04:57:04;;;;;;;7.47;6.70;;;15.60;99.90;;;;;;4957109;28;38926;-81
2023/07/27 05:00:00;;;;;;;8.02;6.97;;;15.60;99.90;;;;;;4959567;28;48779;-82
2023/07/27 05:02:35;;;;;;;8.18;7.47;;;15.60;99.90;;;;;;4957996;28;39848;-81
2023/07/27 05:05:19;;;;;;;9.38;7.70;;;15.70;99.90;;;;;;4949577;28;37749;-80
2023/07/27 05:07:45;;;;;;;7.43;6.72;;;15.70;99.90;;;;;;4960247;28;50129;-82
2023/07/27 05:10:25;;;;;;;7.95;6.75;;;15.70;99.90;;;;;;4959256;28;39041;-81
2023/07/27 05:13:29;;;;;;;10.52;9.05;;;15.70;99.90;;;;;;4961474;28;38492;-81
2023/07/27 05:15:56;;;;;;;9.73;8.73;;;15.80;99.90;;;;;;4962537;28;48014;-80
2023/07/27 05:18:22;;;;;;;9.27;8.27;;;15.80;99.90;;;;;;4960856;28;39203;-81
2023/07/27 05:20:58;;;;;;;9.65;8.75;;;15.80;99.90;;;;;;4960005;28;39393;-81
2023/07/27 05:23:24;;;;;;;8.63;7.80;;;15.80;99.90;;;;;;4954300;28;39009;-80
2023/07/27 05:26:05;;;;;;;9.48;8.48;;;15.90;99.90;;;;;;4949437;28;37756;-80
2023/07/27 05:28:37;;;;;;;8.95;8.13;;;15.90;99.90;;;;;;4959656;28;47342;-80
2023/07/27 05:31:12;;;;;;;10.27;9.20;;;15.90;99.90;;;;;;4962972;28;40265;-81
2023/07/27 05:33:55;;;;;;;10.93;9.93;;;15.90;99.90;;;;;;4963163;28;38754;-81
2023/07/27 06:05:21;;;;;;;7.07;3.55;;;16.30;99.90;;;;;;5926761;23;20433;-79
2023/07/27 06:08:54;;;;;;;3.75;3.05;;;16.40;99.90;;;;;;4960277;28;37121;-79
2023/07/27 06:12:02;;;;;;;6.28;3.22;;;16.40;99.90;;;;;;4897713;29;39482;-79
2023/07/27 06:15:33;;;;;;;5.80;3.50;;;16.40;99.90;;;;;;4941288;29;40248;-79
2023/07/27 06:18:18;;;;;;;9.32;4.25;;;16.50;99.90;;;;;;4922338;29;40111;-79
2023/07/27 06:20:55;;;;;;;8.98;5.05;;;16.60;99.90;;;;;;4909711;29;37672;-79
2023/07/27 06:23:54;;;;;;;11.50;4.50;;;16.60;99.90;;;;;;4829805;29;39029;-79
2023/07/27 06:26:58;;;;;;;10.13;4.43;;;16.60;99.90;;;;;;4970487;23;40290;-79
2023/07/27 06:30:04;;;;;;;11.70;5.18;;;16.70;99.90;;;;;;4972501;28;39945;-80
2023/07/27 06:33:20;;;;;;;10.60;5.15;;;16.70;99.90;;;;;;4934867;28;51301;-77
2023/07/27 06:36:11;;;;;;;9.00;4.07;;;16.80;99.90;;;;;;4938914;28;40131;-77
2023/07/27 06:38:51;;;;;;;10.02;4.03;;;16.70;99.90;;;;;;4939090;28;50291;-79
2023/07/27 06:42:01;;;;;;;7.32;4.10;;;16.70;99.90;;;;;;4936229;28;49667;-79
2023/07/27 06:44:36;;;;;;;8.63;3.38;;;16.80;99.90;;;;;;4931134;28;38660;-79
2023/07/27 06:47:25;;;;;;;6.03;3.03;;;16.80;99.90;;;;;;4977826;28;40136;-79
2023/07/27 06:50:06;;;;;;;7.38;3.25;;;16.80;99.90;;;;;;4911543;28;47922;-78
2023/07/27 06:52:59;;;;;;;7.15;2.33;;;16.90;99.90;;;;;;4970190;28;49235;-79
2023/07/27 06:55:58;;;;;;;6.68;2.10;;;16.80;99.90;;;;;;4958075;28;50137;-78
2023/07/27 06:58:56;;;;;;;5.57;2.13;;;16.90;99.90;;;;;;4954626;28;50938;-80
2023/07/27 07:01:45;;;;;;;5.03;1.83;;;16.90;99.90;;;;;;4949087;28;48934;-78
2023/07/27 07:05:03;;;;;;;6.00;1.90;;;16.80;99.90;;;;;;4955601;28;41269;-79
2023/07/27 07:07:57;;;;;;;6.45;1.80;;;16.90;99.90;;;;;;4899041;28;38656;-79
2023/07/27 07:10:29;;;;;;;5.93;1.90;;;16.90;99.90;;;;;;4886480;29;37779;-79
2023/07/27 07:13:01;;;;;;;5.97;1.58;;;16.90;99.90;;;;;;4887491;29;39271;-79
2023/07/27 07:15:45;;;;;;;3.25;1.60;;;17.00;99.90;;;;;;4852138;29;38562;-78
2023/07/27 07:18:40;;;;;;;4.28;1.55;;;16.90;99.90;;;;;;4847185;29;37546;-79
2023/07/27 07:21:14;;;;;;;4.53;1.75;;;17.00;99.90;;;;;;4871011;29;41572;-79
2023/07/27 07:23:56;;;;;;;8.65;2.38;;;17.00;99.90;;;;;;4895961;29;38842;-79
2023/07/27 07:26:57;;;;;;;4.82;2.30;;;17.10;99.90;;;;;;4846446;29;38872;-79
2023/07/27 07:29:36;;;;;;;4.18;2.10;;;17.10;99.90;;;;;;4871660;29;38171;-80
2023/07/27 07:32:23;;;;;;;5.53;1.85;;;17.00;99.90;;;;;;4877503;29;40126;-79
2023/07/27 07:34:58;;;;;;;5.38;1.85;;;17.20;99.90;;;;;;4898301;29;39731;-78
2023/07/27 07:37:51;;;;;;;5.20;1.92;;;17.20;99.90;;;;;;4887075;29;39027;-78
2023/07/27 07:40:35;;;;;;;3.47;1.40;;;17.20;99.90;;;;;;4883102;29;49484;-79
2023/07/27 07:43:12;;;;;;;4.47;1.38;;;17.20;99.90;;;;;;4887893;29;39157;-79
2023/07/27 07:46:02;;;;;;;3.17;1.10;;;17.20;99.90;;;;;;4894558;29;47963;-78
2023/07/27 07:48:38;;;;;;;5.32;1.38;;;17.30;99.90;;;;;;4903418;28;48520;-79
2023/07/27 07:51:43;;;;;;;4.18;1.67;;;17.30;99.90;;;;;;4930570;29;38770;-79
2023/07/27 07:54:24;;;;;;;1.85;1.00;;;17.30;99.90;;;;;;4918643;28;40268;-79
2023/07/27 07:57:20;;;;;;;4.00;1.40;;;17.30;99.90;;;;;;4928258;28;48754;-79
2023/07/27 07:59:50;;;;;;;7.22;1.73;;;17.40;99.90;;;;;;4921439;28;48754;-80
2023/07/27 08:02:43;;;;;;;3.55;0.95;;;17.30;99.90;;;;;;4960063;28;37646;-79
2023/07/27 08:05:14;;;;;;;4.68;1.20;;;17.30;99.90;;;;;;4965659;28;39239;-78
2023/07/27 08:08:13;;;;;;;6.40;1.38;;;17.30;99.90;;;;;;4964749;28;41686;-79
2023/07/27 08:11:03;;;;;;;3.35;0.90;;;17.40;99.90;;;;;;4914694;28;50195;-78
2023/07/27 08:14:03;;;;;;;4.25;1.25;;;17.40;99.90;;;;;;4953046;28;48481;-78
2023/07/27 08:16:45;;;;;;;3.33;1.00;;;17.50;99.90;;;;;;4949268;28;40329;-78
2023/07/27 08:19:47;;;;;;;3.47;1.30;;;17.60;99.90;;;;;;4915966;28;40243;-79
2023/07/27 08:22:59;;;;;;;6.47;1.17;;;17.70;99.90;;;;;;4966515;28;39033;-79
2023/07/27 08:30:03;;;;;;;2.28;0.80;;;17.60;99.90;;;;;;4967172;28;39717;-80
2023/07/27 08:32:53;;;;;;;1.70;0.65;;;17.60;99.90;;;;;;4981325;28;39917;-80
2023/07/27 08:35:35;;;;;;;1.58;0.75;;;17.70;99.90;;;;;;4948696;28;39630;-78
2023/07/27 08:38:05;;;;;;;2.58;0.90;;;17.60;99.90;;;;;;4958634;28;38715;-79
2023/07/27 08:41:05;;;;;;;4.13;1.42;;;17.60;99.90;;;;;;4984992;28;40013;-79
2023/07/27 08:44:21;;;;;;;4.78;1.25;;;17.60;99.90;;;;;;4976311;28;39019;-80
2023/07/27 08:47:08;;;;;;;3.50;1.00;;;17.70;99.90;;;;;;4955964;28;38960;-79
2023/07/27 08:50:19;;;;;;;7.20;1.13;;;17.80;99.90;;;;;;4958196;28;48852;-80
2023/07/27 08:54:00;;;;;;;6.60;1.27;;;18.00;99.90;;;;;;4923420;28;40358;-80
2023/07/27 08:57:20;;;;;;;8.35;1.35;;;17.90;99.90;;;;;;4899347;28;49439;-80
2023/07/27 09:03:19;;;;;;;6.05;1.30;;;17.90;99.90;;;;;;4898424;28;50701;-79
2023/07/27 09:06:13;;;;;;;7.07;1.58;;;17.80;99.90;;;;;;4909396;28;40670;-78
2023/07/27 09:08:48;;;;;;;5.63;1.58;;;17.80;99.90;;;;;;4913790;29;47950;-78
2023/07/27 09:11:20;;;;;;;9.32;1.80;;;17.90;99.90;;;;;;4922703;28;39982;-80
2023/07/27 09:14:05;;;;;;;8.05;2.00;;;17.90;99.90;;;;;;4948357;28;37908;-78
2023/07/27 09:16:43;;;;;;;7.20;1.75;;;17.80;99.90;;;;;;4900809;29;51235;-78
2023/07/27 09:20:04;;;;;;;8.15;1.80;;;17.90;99.90;;;;;;4909490;29;39800;-78
2023/07/27 09:23:05;;;;;;;6.43;1.38;;;17.90;99.90;;;;;;4860234;29;39646;-78
2023/07/27 09:25:55;;;;;;;4.57;0.80;;;18.00;99.90;;;;;;4893282;28;49905;-78
2023/07/27 09:28:50;;;;;;;4.15;0.73;;;18.00;99.90;;;;;;4925062;28;49960;-77
2023/07/27 09:31:51;;;;;;;4.85;1.08;;;18.00;99.90;;;;;;4915131;28;40301;-78
2023/07/27 09:35:00;;;;;;;4.22;0.80;;;17.90;99.90;;;;;;4929723;28;39892;-79
2023/07/27 09:37:38;;;;;;;2.90;0.80;;;17.90;99.90;;;;;;4880874;29;36830;-77
2023/07/27 09:40:15;;;;;;;3.97;1.10;;;17.90;99.90;;;;;;4923644;29;40204;-77
2023/07/27 09:42:49;;;;;;;6.07;1.20;;;17.90;99.90;;;;;;4894879;29;37883;-79
2023/07/27 09:45:45;;;;;;;4.22;1.30;;;17.90;99.90;;;;;;4851343;29;38668;-80
2023/07/27 09:48:59;;;;;;;5.30;1.05;;;18.00;99.90;;;;;;4884954;29;37586;-80
2023/07/27 09:51:48;;;;;;;1.67;0.70;;;18.10;99.90;;;;;;4866760;29;48654;-81
2023/07/27 09:54:33;;;;;;;5.57;1.27;;;18.20;99.90;;;;;;4916116;28;39109;-80
2023/07/27 09:57:36;;;;;;;7.35;1.00;;;18.20;99.90;;;;;;4935071;28;39089;-80
2023/07/27 10:00:59;;;;;;;3.92;0.95;;;18.30;99.90;;;;;;4933655;29;49555;-80
2023/07/27 10:03:57;;;;;;;4.63;1.17;;;18.20;99.90;;;;;;4904405;29;49320;-79
2023/07/27 10:06:54;;;;;;;2.38;0.70;;;18.30;99.90;;;;;;4936337;28;40153;-80
2023/07/27 10:10:17;;;;;;;2.50;0.73;;;18.40;99.90;;;;;;4966274;28;39822;-80
2023/07/27 10:13:02;;;;;;;2.85;0.70;;;18.50;99.90;;;;;;4909994;29;38547;-79
2023/07/27 10:16:03;;;;;;;3.90;1.08;;;18.60;99.90;;;;;;4959688;28;40091;-79
2023/07/27 10:19:11;;;;;;;3.42;0.55;;;18.60;99.90;;;;;;4883824;28;38686;-80
2023/07/27 10:22:59;;;;;;;4.45;0.90;;;18.60;99.90;;;;;;4940640;28;39376;-80
2023/07/27 10:26:01;;;;;;;3.72;0.70;;;18.60;99.90;;;;;;4895436;28;49822;-80
2023/07/27 10:28:59;;;;;;;2.33;0.70;;;18.40;99.90;;;;;;4903447;28;40349;-79
2023/07/27 10:31:57;;;;;;;4.82;1.00;;;18.50;99.90;;;;;;4916793;29;37373;-79
2023/07/27 10:35:06;;;;;;;3.70;0.70;;;18.50;99.90;;;;;;4877999;29;39126;-79
2023/07/27 10:38:09;;;;;;;1.90;0.90;;;18.50;99.90;;;;;;4874234;29;37714;-80
2023/07/27 10:41:19;;;;;;;4.50;1.07;;;18.50;99.90;;;;;;4887906;28;49930;-80
2023/07/27 10:44:45;;;;;;;4.25;1.27;;;18.50;99.90;;;;;;4898846;29;50098;-80
2023/07/27 10:51:01;;;;;;;4.10;1.40;;;18.50;99.90;;;;;;4790780;29;50774;-78
2023/07/27 10:53:53;;;;;;;5.80;1.42;;;18.60;99.90;;;;;;4812852;29;40341;-79
2023/07/27 10:56:57;;;;;;;7.55;1.48;;;18.80;99.90;;;;;;4809489;29;40072;-80
2023/07/27 10:59:49;;;;;;;6.18;1.90;;;18.80;99.90;;;;;;4827707;29;39944;-79
2023/07/27 11:02:57;;;;;;;7.30;1.60;;;18.70;99.90;;;;;;4840690;29;37995;-81
2023/07/27 11:06:01;;;;;;;5.05;1.23;;;18.80;99.90;;;;;;4858910;29;40214;-79
2023/07/27 11:12:13;;;;;;;7.70;1.47;;;18.90;99.90;;;;;;4856926;29;50674;-80
2023/07/27 11:18:44;;;;;;;3.35;0.82;;;18.80;99.90;;;;;;4838796;29;50481;-79
2023/07/27 11:29:25;;;;;;;6.57;1.73;;;18.60;99.90;;;;;;4972613;28;38998;-80
2023/07/27 11:32:20;;;;;;;8.32;2.15;;;18.60;99.90;;;;;;4956916;28;39068;-80
2023/07/27 11:38:40;;;;;;;8.98;2.53;;;18.60;99.90;;;;;;4964966;28;39597;-81
2023/07/27 11:42:01;;;;;;;6.38;1.88;;;18.70;99.90;;;;;;4979736;28;37570;-80
2023/07/27 11:45:13;;;;;;;12.18;2.75;;;18.60;99.90;;;;;;4964778;28;40088;-79
2023/07/27 11:48:18;;;;;;;8.80;2.35;;;18.70;99.90;;;;;;4977630;28;40151;-80
2023/07/27 11:51:50;;;;;;;10.60;3.58;;;18.70;99.90;;;;;;4952062;28;38352;-80
2023/07/27 11:55:06;;;;;;;11.82;2.92;;;18.70;99.90;;;;;;4898900;28;38183;-79
2023/07/27 11:58:51;;;;;;;18.75;4.20;;;18.80;99.90;;;;;;4912379;28;38721;-80
2023/07/27 12:01:50;;;;;;;16.05;3.78;;;18.60;99.90;;;;;;4911242;28;48853;-80
2023/07/27 12:05:01;;;;;;;18.25;4.20;;;18.50;99.90;;;;;;4938200;28;40012;-79
2023/07/27 12:08:14;;;;;;;16.75;4.30;;;18.50;99.90;;;;;;4967560;28;38503;-79
2023/07/27 12:11:23;;;;;;;20.23;4.38;;;18.50;99.90;;;;;;4905158;28;41264;-79
2023/07/27 12:14:44;;;;;;;20.30;4.20;;;18.50;99.90;;;;;;4911495;28;49515;-79
2023/07/27 12:17:41;;;;;;;18.95;5.10;;;18.40;99.90;;;;;;4892545;28;49366;-79
2023/07/27 12:20:42;;;;;;;16.75;4.95;;;18.50;99.90;;;;;;4924619;28;49372;-81
2023/07/27 12:24:12;;;;;;;23.95;4.93;;;18.50;99.90;;;;;;4928655;28;49969;-80
2023/07/27 12:27:19;;;;;;;14.10;4.70;;;18.50;99.90;;;;;;4922286;29;40139;-79
2023/07/27 12:29:57;;;;;;;19.70;5.22;;;18.40;99.90;;;;;;4935007;28;49702;-80
2023/07/27 12:32:38;;;;;;;16.17;5.05;;;18.50;99.90;;;;;;4945347;28;38657;-79
2023/07/27 12:35:31;;;;;;;24.45;5.05;;;18.50;99.90;;;;;;4960351;28;39411;-80
2023/07/27 12:44:38;;;;;;;19.85;5.03;;;18.40;99.90;;;;;;5885308;23;22173;-79
2023/07/27 12:48:15;;;;;;;16.92;5.25;;;18.50;99.90;;;;;;4892551;28;46811;-80
2023/07/27 12:51:43;;;;;;;17.50;4.65;;;18.50;99.90;;;;;;4886510;29;40300;-80
2023/07/27 12:55:03;;;;;;;15.68;4.57;;;18.50;99.90;;;;;;4842197;29;39942;-78
2023/07/27 13:01:59;;;;;;;15.02;3.97;;;18.30;99.90;;;;;;4860037;29;40542;-79
2023/07/27 13:04:59;;;;;;;16.30;4.50;;;18.40;99.90;;;;;;4780644;29;50239;-80
2023/07/27 13:08:30;;;;;;;20.00;4.88;;;18.40;99.90;;;;;;4810616;29;39955;-79
2023/07/27 13:15:07;;;;;;;18.98;4.82;;;18.40;99.90;;;;;;4795152;29;49104;-80
2023/07/27 13:18:14;;;;;;;19.98;4.40;;;18.40;99.90;;;;;;4791535;29;40298;-80
2023/07/27 13:21:37;;;;;;;13.27;4.10;;;18.40;99.90;;;;;;4737197;30;39916;-79
2023/07/27 13:24:27;;;;;;;19.83;4.78;;;18.40;99.90;;;;;;4715234;29;37606;-79
2023/07/27 13:27:20;;;;;;;22.75;5.72;;;18.50;99.90;;;;;;4784324;29;50061;-80
2023/07/27 13:30:32;;;;;;;17.25;4.43;;;18.60;99.90;;;;;;4819005;29;40370;-80
2023/07/27 13:33:39;;;;;;;19.77;4.28;;;18.60;99.90;;;;;;4842701;29;39439;-79
2023/07/27 13:36:46;;;;;;;17.50;3.90;;;18.60;99.90;;;;;;4811834;29;38463;-80
2023/07/27 13:39:30;;;;;;;18.27;4.72;;;18.50;99.90;;;;;;4797333;29;40583;-80
2023/07/27 13:48:49;;;;;;;17.75;4.00;;;18.60;99.90;;;;;;5684421;23;20209;-79
2023/07/27 13:52:05;;;;;;;17.05;5.05;;;18.60;99.90;;;;;;4916131;28;49322;-78
2023/07/27 13:54:38;;;;;;;14.73;3.95;;;18.60;99.90;;;;;;4959775;28;39442;-79
2023/07/27 13:57:40;;;;;;;14.18;3.80;;;18.50;99.90;;;;;;4925304;28;39864;-79
2023/07/27 14:00:55;;;;;;;14.55;4.43;;;18.50;99.90;;;;;;4961103;28;38316;-79
2023/07/27 14:03:36;;;;;;;14.40;3.80;;;18.50;99.90;;;;;;4935147;28;39761;-80
2023/07/27 14:06:41;;;;;;;12.07;3.93;;;18.60;99.90;;;;;;4911305;29;39423;-78
2023/07/27 14:10:05;;;;;;;12.75;4.93;;;18.60;99.90;;;;;;4926228;28;40174;-79
2023/07/27 14:12:42;;;;;;;13.55;4.68;;;18.70;99.90;;;;;;4922704;28;37289;-78
2023/07/27 14:15:32;;;;;;;23.08;4.38;;;18.70;99.90;;;;;;4920796;28;40172;-79
2023/07/27 14:18:25;;;;;;;21.50;5.53;;;18.80;99.90;;;;;;4949918;28;39938;-80
2023/07/27 14:21:30;;;;;;;16.65;4.57;;;18.70;99.90;;;;;;4924532;29;39904;-80
2023/07/27 14:24:45;;;;;;;19.23;4.18;;;18.70;99.90;;;;;;4888838;29;49473;-78
2023/07/27 14:28:06;;;;;;;9.07;3.58;;;18.70;99.90;;;;;;4841781;29;50051;-79
2023/07/27 14:31:20;;;;;;;14.18;4.43;;;18.60;99.90;;;;;;4839500;29;49878;-81
2023/07/27 14:34:34;;;;;;;10.25;3.38;;;18.60;99.90;;;;;;4893027;29;40230;-79
2023/07/27 14:37:33;;;;;;;13.13;2.88;;;18.50;99.90;;;;;;4845827;29;50170;-79
2023/07/27 14:40:46;;;;;;;14.05;2.97;;;18.70;99.90;;;;;;4846960;29;39254;-80
2023/07/27 14:43:24;;;;;;;7.78;2.22;;;18.70;99.90;;;;;;4866034;29;39556;-78
2023/07/27 14:46:50;;;;;;;7.30;2.67;;;18.70;99.90;;;;;;4903500;29;39592;-80
2023/07/27 14:49:42;;;;;;;5.60;1.92;;;18.70;99.90;;;;;;4868285;29;37656;-79
2023/07/27 14:52:20;;;;;;;8.38;2.35;;;18.80;99.90;;;;;;4828527;29;40111;-79
2023/07/27 14:55:15;;;;;;;8.88;2.42;;;18.70;99.90;;;;;;4874763;29;40992;-80
2023/07/27 14:58:14;;;;;;;9.85;3.00;;;18.60;99.90;;;;;;4866764;29;39156;-79
2023/07/27 15:01:10;;;;;;;12.68;3.33;;;18.60;99.90;;;;;;4852928;29;48083;-79
2023/07/27 15:04:16;;;;;;;13.10;3.42;;;18.60;99.90;;;;;;4860438;29;50196;-79
2023/07/27 15:07:01;;;;;;;10.18;3.92;;;18.70;99.90;;;;;;4887587;29;40435;-79
2023/07/27 15:10:16;;;;;;;9.15;2.92;;;18.60;99.90;;;;;;4859002;29;37781;-79
2023/07/27 15:13:16;;;;;;;10.13;2.67;;;18.60;99.90;;;;;;4866600;29;47950;-79
2023/07/27 15:16:19;;;;;;;9.75;2.28;;;18.60;99.90;;;;;;4922587;29;39959;-79
2023/07/27 15:19:35;;;;;;;12.20;2.42;;;18.60;99.90;;;;;;4907924;29;20037;-81
2023/07/27 15:22:19;;;;;;;11.90;3.00;;;18.50;99.90;;;;;;4926312;28;40894;-79
2023/07/27 15:25:09;;;;;;;8.30;3.40;;;18.50;99.90;;;;;;4945258;28;37477;-79
2023/07/27 15:28:04;;;;;;;14.98;4.22;;;18.30;99.90;;;;;;4917718;29;49603;-78
2023/07/27 15:31:28;;;;;;;20.75;4.60;;;18.40;99.90;;;;;;4900929;29;39313;-80
2023/07/27 15:34:26;;;;;;;19.98;5.13;;;18.40;99.90;;;;;;4895729;28;48878;-80
2023/07/27 15:37:33;;;;;;;16.85;4.60;;;18.40;99.90;;;;;;4849942;29;49526;-80
2023/07/27 15:40:18;;;;;;;16.67;4.22;;;18.30;99.90;;;;;;4846526;29;40270;-80
2023/07/27 15:42:52;;;;;;;20.13;4.95;;;18.30;99.90;;;;;;4859602;29;40488;-81
2023/07/27 15:45:37;;;;;;;15.98;4.65;;;18.30;99.90;;;;;;4845891;29;38769;-80
2023/07/27 15:48:47;;;;;;;20.25;4.95;;;18.20;99.90;;;;;;4836388;29;37456;-80
2023/07/27 15:51:34;;;;;;;17.50;4.07;;;18.30;99.90;;;;;;4885161;29;39237;-80
2023/07/27 15:54:09;;;;;;;13.93;3.88;;;18.30;99.90;;;;;;4875772;29;39157;-79
2023/07/27 15:57:26;;;;;;;13.32;3.83;;;18.20;99.90;;;;;;4882773;29;39320;-81
2023/07/27 16:00:10;;;;;;;16.10;3.78;;;18.20;99.90;;;;;;4843978;29;50119;-80
2023/07/27 16:03:05;;;;;;;15.27;3.88;;;18.30;99.90;;;;;;4854729;29;40097;-80
2023/07/27 16:05:38;;;;;;;16.58;3.38;;;18.40;99.90;;;;;;4845715;29;48160;-80